Time;durP1;ratioP1;P1;durP2;ratioP2;P2;SDS_P1;SDS_P2;PMS_P1;PMS_P2;Temp;Humidity;BMP_temperature;BMP_pressure;BME280_temperature;BME280_humidity;BME280_pressure;Samples;Min_cycle;Max_cycle;Signal;HPM_P1;HPM_P2
2023/10/03 00:00:34;;;;;;;;;;;24.60;70.40;;;;;;5106699;28;19912;-49
2023/10/03 00:03:03;;;;;;;;;;;24.60;70.30;;;;;;5096456;28;19912;-48
2023/10/03 00:05:30;;;;;;;;;;;24.60;70.20;;;;;;5099780;28;19912;-47
2023/10/03 00:07:56;;;;;;;;;;;24.60;70.20;;;;;;5086307;28;19916;-50
2023/10/03 00:10:22;;;;;;;;;;;24.60;70.10;;;;;;5112605;28;19991;-47
2023/10/03 00:12:49;;;;;;;;;;;24.60;70.10;;;;;;5106019;28;19930;-47
2023/10/03 00:15:15;;;;;;;;;;;24.60;70.00;;;;;;5105842;28;19938;-47
2023/10/03 00:17:41;;;;;;;;;;;24.60;69.90;;;;;;5105159;28;19908;-48
2023/10/03 00:20:08;;;;;;;;;;;24.60;69.90;;;;;;5095256;28;20022;-49
2023/10/03 00:22:34;;;;;;;;;;;24.60;69.90;;;;;;5105388;28;19908;-48
2023/10/03 00:25:01;;;;;;;;;;;24.50;69.80;;;;;;5091020;28;19921;-50
2023/10/03 00:27:28;;;;;;;;;;;24.50;69.90;;;;;;5107357;28;19912;-50
2023/10/03 00:29:55;;;;;;;;;;;24.50;70.10;;;;;;5097908;28;19916;-48
2023/10/03 00:32:21;;;;;;;;;;;24.50;70.10;;;;;;5101460;28;19908;-49
2023/10/03 00:34:47;;;;;;;;;;;24.50;70.10;;;;;;5101942;28;19912;-48
2023/10/03 00:37:13;;;;;;;;;;;24.50;70.00;;;;;;5097396;28;19908;-47
2023/10/03 00:39:39;;;;;;;;;;;24.50;70.00;;;;;;5104800;28;19916;-48
2023/10/03 00:42:08;;;;;;;;;;;24.50;69.70;;;;;;5105481;28;20293;-50
2023/10/03 00:44:33;;;;;;;;;;;24.50;69.50;;;;;;5097819;28;20487;-48
2023/10/03 00:46:59;;;;;;;;;;;24.50;69.50;;;;;;5096322;28;19912;-48
2023/10/03 00:49:28;;;;;;;;;;;24.50;69.40;;;;;;5100279;28;19931;-50
2023/10/03 00:51:54;;;;;;;;;;;24.50;69.30;;;;;;5084580;28;19908;-48
2023/10/03 00:54:20;;;;;;;;;;;24.50;69.10;;;;;;5104992;28;19912;-50
2023/10/03 00:56:47;;;;;;;;;;;24.50;69.10;;;;;;5086586;28;20382;-52
2023/10/03 00:59:13;;;;;;;;;;;24.50;69.00;;;;;;5101702;28;19928;-49
2023/10/03 01:01:41;;;;;;;;;;;24.50;68.90;;;;;;5104562;28;19919;-49
2023/10/03 01:04:16;;;;;;;;;;;24.40;69.00;;;;;;5104757;28;19916;-49
2023/10/03 01:06:42;;;;;;;;;;;24.40;69.10;;;;;;5105097;28;20293;-50
2023/10/03 01:09:16;;;;;;;;;;;24.40;69.00;;;;;;5104156;28;20007;-49
2023/10/03 01:11:42;;;;;;;;;;;24.40;69.00;;;;;;5102231;28;19911;-50
2023/10/03 01:14:08;;;;;;;;;;;24.40;69.10;;;;;;5095037;28;19950;-53
2023/10/03 01:16:36;;;;;;;;;;;24.40;69.00;;;;;;5093758;28;20704;-50
2023/10/03 01:19:14;;;;;;;;;;;24.40;69.10;;;;;;5100491;28;19920;-51
2023/10/03 01:21:45;;;;;;;;;;;24.40;69.10;;;;;;5104744;28;19933;-48
2023/10/03 01:24:20;;;;;;;;;;;24.30;68.80;;;;;;5103880;28;19958;-51
2023/10/03 01:26:46;;;;;;;;;;;24.30;68.80;;;;;;5086197;28;19919;-49
2023/10/03 01:29:12;;;;;;;;;;;24.30;68.90;;;;;;5103796;28;19912;-48
2023/10/03 01:31:42;;;;;;;;;;;24.30;68.80;;;;;;5104545;28;19987;-50
2023/10/03 01:34:07;;;;;;;;;;;24.30;68.80;;;;;;5104033;28;19912;-49
2023/10/03 01:36:33;;;;;;;;;;;24.30;68.80;;;;;;5104641;28;19912;-49
2023/10/03 01:38:59;;;;;;;;;;;24.30;68.80;;;;;;5094142;28;19963;-50
2023/10/03 01:41:25;;;;;;;;;;;24.30;68.80;;;;;;5104362;28;19912;-48
2023/10/03 01:43:52;;;;;;;;;;;24.30;68.80;;;;;;5096373;28;19912;-49
2023/10/03 01:46:18;;;;;;;;;;;24.30;68.80;;;;;;5084017;28;20376;-50
2023/10/03 01:48:44;;;;;;;;;;;24.20;68.90;;;;;;5104173;28;19912;-51
2023/10/03 01:51:10;;;;;;;;;;;24.20;68.80;;;;;;5103061;28;19998;-49
2023/10/03 01:53:36;;;;;;;;;;;24.20;68.80;;;;;;5103830;28;19912;-47
2023/10/03 01:56:04;;;;;;;;;;;24.20;68.80;;;;;;5102452;28;19912;-49
2023/10/03 01:58:30;;;;;;;;;;;24.20;68.80;;;;;;5097846;28;19924;-50
2023/10/03 02:00:56;;;;;;;;;;;24.10;68.70;;;;;;5103538;28;19908;-52
2023/10/03 02:03:22;;;;;;;;;;;24.10;68.70;;;;;;5096118;28;19919;-49
2023/10/03 02:05:48;;;;;;;;;;;24.10;68.80;;;;;;5095621;28;19912;-51
2023/10/03 02:08:17;;;;;;;;;;;24.10;68.60;;;;;;5075127;28;19912;-48
2023/10/03 02:10:46;;;;;;;;;;;24.10;68.70;;;;;;5094876;28;19912;-49
2023/10/03 02:13:17;;;;;;;;;;;24.10;68.60;;;;;;5102365;28;19912;-48
2023/10/03 02:15:46;;;;;;;;;;;24.10;68.70;;;;;;5070089;28;19912;-51
2023/10/03 02:18:13;;;;;;;;;;;24.10;68.70;;;;;;5102499;28;19951;-50
2023/10/03 02:20:51;;;;;;;;;;;24.10;68.90;;;;;;5095867;28;19912;-49
2023/10/03 02:23:19;;;;;;;;;;;24.10;68.80;;;;;;5103194;28;19955;-49
2023/10/03 02:25:45;;;;;;;;;;;24.10;68.80;;;;;;5103163;28;19912;-49
2023/10/03 02:28:14;;;;;;;;;;;24.00;68.80;;;;;;5104330;28;19912;-49
2023/10/03 02:30:40;;;;;;;;;;;24.00;68.80;;;;;;5109614;28;19915;-48
2023/10/03 02:33:16;;;;;;;;;;;24.00;68.70;;;;;;5118229;28;19912;-51
2023/10/03 02:35:42;;;;;;;;;;;24.00;68.80;;;;;;5103420;28;19912;-49
2023/10/03 02:38:23;;;;;;;;;;;24.00;68.80;;;;;;5102566;28;19912;-48
2023/10/03 02:40:50;;;;;;;;;;;24.00;68.80;;;;;;5109312;28;20531;-50
2023/10/03 02:43:16;;;;;;;;;;;24.00;69.00;;;;;;5102125;28;19912;-48
2023/10/03 02:45:42;;;;;;;;;;;23.90;68.80;;;;;;5095472;28;19962;-48
2023/10/03 02:48:20;;;;;;;;;;;23.90;68.80;;;;;;5101720;28;20002;-50
2023/10/03 02:50:46;;;;;;;;;;;23.90;68.80;;;;;;5102659;28;19979;-49
2023/10/03 02:53:19;;;;;;;;;;;23.90;68.80;;;;;;5102335;28;19912;-49
2023/10/03 02:55:45;;;;;;;;;;;23.90;68.90;;;;;;5104220;28;19912;-48
2023/10/03 02:58:13;;;;;;;;;;;23.90;68.90;;;;;;5102939;28;20026;-51
2023/10/03 03:00:39;;;;;;;;;;;23.90;69.00;;;;;;5103199;28;20591;-50
2023/10/03 03:03:09;;;;;;;;;;;23.80;68.90;;;;;;5102077;28;19915;-51
2023/10/03 03:05:36;;;;;;;;;;;23.80;69.00;;;;;;5103011;28;19908;-48
2023/10/03 03:10:51;;;;;;;;;;;23.80;69.00;;;;;;5102379;28;19912;-48
2023/10/03 03:13:18;;;;;;;;;;;23.80;69.00;;;;;;5097038;28;19926;-48
2023/10/03 03:15:51;;;;;;;;;;;23.80;69.00;;;;;;5102313;28;19907;-48
2023/10/03 03:18:20;;;;;;;;;;;23.80;69.10;;;;;;5102220;28;19923;-51
2023/10/03 03:21:13;;;;;;;;;;;23.70;69.10;;;;;;5039792;28;19917;-49
2023/10/03 03:23:42;;;;;;;;;;;23.70;69.10;;;;;;5039854;28;20009;-49
2023/10/03 03:26:18;;;;;;;;;;;23.70;69.00;;;;;;5039780;28;20364;-48
2023/10/03 03:28:49;;;;;;;;;;;23.70;69.10;;;;;;5040124;28;19960;-49
2023/10/03 03:33:48;;;;;;;;;;;23.70;69.00;;;;;;5039591;28;19913;-47
2023/10/03 03:36:17;;;;;;;;;;;23.70;69.20;;;;;;5039808;28;20440;-51
2023/10/03 03:38:47;;;;;;;;;;;23.60;69.10;;;;;;5039396;28;19917;-49
2023/10/03 03:41:13;;;;;;;;;;;23.60;69.20;;;;;;5039706;28;19916;-49
2023/10/03 03:43:39;;;;;;;;;;;23.60;69.20;;;;;;5039781;28;19917;-50
2023/10/03 03:46:05;;;;;;;;;;;23.60;69.20;;;;;;5039613;28;19909;-48
2023/10/03 03:48:34;;;;;;;;;;;23.60;69.20;;;;;;5040876;28;19913;-48
2023/10/03 03:51:00;;;;;;;;;;;23.60;69.30;;;;;;5039394;28;19909;-49
2023/10/03 03:53:26;;;;;;;;;;;23.60;69.20;;;;;;5039464;28;19919;-47
2023/10/03 03:55:52;;;;;;;;;;;23.60;69.40;;;;;;5039593;28;19913;-52
2023/10/03 03:58:21;;;;;;;;;;;23.60;69.30;;;;;;5072928;28;19938;-49
2023/10/03 04:00:52;;;;;;;;;;;23.50;69.30;;;;;;5102175;28;19912;-52
2023/10/03 04:03:19;;;;;;;;;;;23.50;69.40;;;;;;5106994;28;19908;-49
2023/10/03 04:05:46;;;;;;;;;;;23.50;69.40;;;;;;5077243;28;19912;-49
2023/10/03 04:08:12;;;;;;;;;;;23.50;69.40;;;;;;5095152;28;19919;-47
2023/10/03 04:10:38;;;;;;;;;;;23.50;69.40;;;;;;5096549;28;19908;-49
2023/10/03 04:13:10;;;;;;;;;;;23.50;69.40;;;;;;5107665;28;19911;-52
2023/10/03 04:15:43;;;;;;;;;;;23.50;69.50;;;;;;5102356;28;19948;-52
2023/10/03 04:18:09;;;;;;;;;;;23.40;69.50;;;;;;5101614;28;19908;-49
2023/10/03 04:20:38;;;;;;;;;;;23.40;69.50;;;;;;5102119;28;19911;-49
2023/10/03 04:23:05;;;;;;;;;;;23.40;69.50;;;;;;5101515;28;19916;-52
2023/10/03 04:25:33;;;;;;;;;;;23.40;69.50;;;;;;5094435;28;19915;-51
2023/10/03 04:27:59;;;;;;;;;;;23.40;69.60;;;;;;5101847;28;19916;-51
2023/10/03 04:30:26;;;;;;;;;;;23.40;69.60;;;;;;5101591;28;19919;-50
2023/10/03 04:32:55;;;;;;;;;;;23.30;69.50;;;;;;5101567;28;19935;-48
2023/10/03 04:35:22;;;;;;;;;;;23.30;69.50;;;;;;5107004;28;19975;-49
2023/10/03 04:37:56;;;;;;;;;;;23.30;69.50;;;;;;5103759;28;19919;-49
2023/10/03 04:40:23;;;;;;;;;;;23.30;69.50;;;;;;5081260;28;19924;-52
2023/10/03 04:42:49;;;;;;;;;;;23.30;69.60;;;;;;5087798;28;19908;-49
2023/10/03 04:45:15;;;;;;;;;;;23.30;69.60;;;;;;5105495;28;19979;-50
2023/10/03 04:47:41;;;;;;;;;;;23.30;69.70;;;;;;5105492;28;19934;-48
2023/10/03 04:50:08;;;;;;;;;;;23.30;69.70;;;;;;5105334;28;19923;-50
2023/10/03 04:52:34;;;;;;;;;;;23.30;69.70;;;;;;5087088;28;19912;-47
2023/10/03 04:55:00;;;;;;;;;;;23.20;69.70;;;;;;5104523;28;19987;-50
2023/10/03 04:57:29;;;;;;;;;;;23.20;69.60;;;;;;5105558;28;19916;-48
2023/10/03 04:59:59;;;;;;;;;;;23.20;69.70;;;;;;5106960;28;20307;-48
2023/10/03 05:02:30;;;;;;;;;;;23.20;69.70;;;;;;5100394;28;19919;-49
2023/10/03 05:04:58;;;;;;;;;;;23.20;69.60;;;;;;5102090;28;19947;-49
2023/10/03 05:07:24;;;;;;;;;;;23.20;69.80;;;;;;5105137;28;19912;-46
2023/10/03 05:09:52;;;;;;;;;;;23.20;69.80;;;;;;5104622;28;20376;-50
2023/10/03 05:12:20;;;;;;;;;;;23.20;69.80;;;;;;5097578;28;19911;-47
2023/10/03 05:14:47;;;;;;;;;;;23.10;69.80;;;;;;5104962;28;19911;-47
2023/10/03 05:17:15;;;;;;;;;;;23.10;69.80;;;;;;5097886;28;19915;-46
2023/10/03 05:19:41;;;;;;;;;;;23.10;70.00;;;;;;5105098;28;20422;-47
2023/10/03 05:22:08;;;;;;;;;;;23.10;69.90;;;;;;5104616;28;19955;-48
2023/10/03 05:24:35;;;;;;;;;;;23.10;69.90;;;;;;5104565;28;19934;-50
2023/10/03 05:27:01;;;;;;;;;;;23.10;69.90;;;;;;5105196;28;19970;-47
2023/10/03 05:29:27;;;;;;;;;;;23.00;69.90;;;;;;5104906;28;19916;-51
2023/10/03 05:31:54;;;;;;;;;;;23.00;69.90;;;;;;5104213;28;19966;-48
2023/10/03 05:34:23;;;;;;;;;;;23.00;70.00;;;;;;5104352;28;19916;-47
2023/10/03 05:36:49;;;;;;;;;;;23.00;70.00;;;;;;5103944;28;19971;-48
2023/10/03 05:39:18;;;;;;;;;;;23.00;70.00;;;;;;5086295;28;19920;-49
2023/10/03 05:41:44;;;;;;;;;;;23.00;70.20;;;;;;5104675;28;19919;-45
2023/10/03 05:44:13;;;;;;;;;;;22.90;70.10;;;;;;5104250;28;19912;-48
2023/10/03 05:46:45;;;;;;;;;;;23.00;70.10;;;;;;5085296;28;19974;-49
2023/10/03 05:49:11;;;;;;;;;;;22.90;70.10;;;;;;5103254;28;19919;-47
2023/10/03 05:51:36;;;;;;;;;;;22.90;70.20;;;;;;5096806;28;19912;-50
2023/10/03 05:54:05;;;;;;;;;;;22.90;70.10;;;;;;5101381;28;19914;-48
2023/10/03 05:56:31;;;;;;;;;;;22.90;70.30;;;;;;5102449;28;19912;-47
2023/10/03 05:58:59;;;;;;;;;;;22.90;70.20;;;;;;5092982;28;19920;-48
2023/10/03 06:01:25;;;;;;;;;;;22.90;70.30;;;;;;5103876;28;19919;-47
2023/10/03 06:03:51;;;;;;;;;;;22.80;70.10;;;;;;5103340;28;19939;-47
2023/10/03 06:06:17;;;;;;;;;;;22.80;70.20;;;;;;5096032;28;19912;-48
2023/10/03 06:08:45;;;;;;;;;;;22.80;70.20;;;;;;5103307;28;19908;-46
2023/10/03 06:11:11;;;;;;;;;;;22.80;70.30;;;;;;5097293;28;19947;-48
2023/10/03 06:13:37;;;;;;;;;;;22.80;70.30;;;;;;5103320;28;19918;-48
2023/10/03 06:16:05;;;;;;;;;;;22.80;71.00;;;;;;5103708;28;19949;-47
2023/10/03 06:18:31;;;;;;;;;;;22.80;70.30;;;;;;5104486;28;19923;-48
2023/10/03 06:20:57;;;;;;;;;;;22.80;70.30;;;;;;5103107;28;19912;-47
2023/10/03 06:23:24;;;;;;;;;;;22.70;70.30;;;;;;5103506;28;19919;-46
2023/10/03 06:25:51;;;;;;;;;;;22.70;70.30;;;;;;5102278;28;19912;-49
2023/10/03 06:28:16;;;;;;;;;;;22.70;70.30;;;;;;5104143;28;19912;-47
2023/10/03 06:30:42;;;;;;;;;;;22.70;70.20;;;;;;5104051;28;20276;-47
2023/10/03 06:33:08;;;;;;;;;;;22.70;70.40;;;;;;5094493;28;20833;-49
2023/10/03 06:35:34;;;;;;;;;;;22.70;70.40;;;;;;5100299;28;19920;-47
2023/10/03 06:38:00;;;;;;;;;;;22.70;70.30;;;;;;5101766;28;19951;-47
2023/10/03 06:40:27;;;;;;;;;;;22.70;70.40;;;;;;5103234;28;19908;-47
2023/10/03 06:42:53;;;;;;;;;;;22.70;70.40;;;;;;5103544;28;20302;-48
2023/10/03 06:45:21;;;;;;;;;;;22.60;70.40;;;;;;5102842;28;19976;-47
2023/10/03 06:47:47;;;;;;;;;;;22.60;71.10;;;;;;5087730;28;19919;-49
2023/10/03 06:50:17;;;;;;;;;;;22.60;70.40;;;;;;5100999;28;19908;-47
2023/10/03 06:52:43;;;;;;;;;;;22.60;70.40;;;;;;5102353;28;19980;-47
2023/10/03 06:55:11;;;;;;;;;;;22.60;70.50;;;;;;5100637;28;19911;-46
2023/10/03 06:57:40;;;;;;;;;;;22.60;70.50;;;;;;5098080;28;19920;-48
2023/10/03 07:00:06;;;;;;;;;;;22.60;70.40;;;;;;5101630;28;19919;-48
2023/10/03 07:02:32;;;;;;;;;;;22.60;70.50;;;;;;5102882;28;20376;-47
2023/10/03 07:04:58;;;;;;;;;;;22.60;70.50;;;;;;5101825;28;19912;-46
2023/10/03 07:07:24;;;;;;;;;;;22.50;70.60;;;;;;5101923;28;19935;-47
2023/10/03 07:09:50;;;;;;;;;;;22.50;70.60;;;;;;5102766;28;19912;-46
2023/10/03 07:12:17;;;;;;;;;;;22.50;70.60;;;;;;5099405;28;19908;-47
2023/10/03 07:14:46;;;;;;;;;;;22.50;70.70;;;;;;5102365;28;19912;-48
2023/10/03 07:17:14;;;;;;;;;;;22.50;70.70;;;;;;5102058;28;20689;-48
2023/10/03 07:19:40;;;;;;;;;;;22.50;70.70;;;;;;5102651;28;20019;-46
2023/10/03 07:22:06;;;;;;;;;;;22.40;70.70;;;;;;5102466;28;19916;-47
2023/10/03 07:24:33;;;;;;;;;;;22.40;70.70;;;;;;5102896;28;19961;-46
2023/10/03 07:27:03;;;;;;;;;;;22.40;70.80;;;;;;5102352;28;19916;-47
2023/10/03 07:29:29;;;;;;;;;;;22.40;70.80;;;;;;5102122;28;19995;-47
2023/10/03 07:31:55;;;;;;;;;;;22.40;70.70;;;;;;5102851;28;19933;-46
2023/10/03 07:34:21;;;;;;;;;;;22.40;70.70;;;;;;5102755;28;19918;-46
2023/10/03 07:36:47;;;;;;;;;;;22.40;70.80;;;;;;5102570;28;19971;-47
2023/10/03 07:39:17;;;;;;;;;;;22.40;70.80;;;;;;5102091;28;20434;-47
2023/10/03 07:41:43;;;;;;;;;;;22.30;70.80;;;;;;5102885;28;19908;-46
2023/10/03 07:44:10;;;;;;;;;;;22.40;70.90;;;;;;5101653;28;20058;-48
2023/10/03 07:46:36;;;;;;;;;;;22.30;70.80;;;;;;5102510;28;19918;-46
2023/10/03 07:49:02;;;;;;;;;;;22.30;70.90;;;;;;5102317;28;19979;-46
2023/10/03 07:51:29;;;;;;;;;;;22.30;70.80;;;;;;5102419;28;19914;-46
2023/10/03 07:53:55;;;;;;;;;;;22.30;70.90;;;;;;5102201;28;19955;-46
2023/10/03 07:56:42;;;;;;;;;;;22.30;71.00;;;;;;5102319;28;19928;-46
2023/10/03 07:59:08;;;;;;;;;;;22.30;71.00;;;;;;5107406;28;19924;-46
2023/10/03 08:01:38;;;;;;;;;;;22.30;71.10;;;;;;5099759;28;19943;-46
2023/10/03 08:04:08;;;;;;;;;;;22.20;71.00;;;;;;5100578;28;19912;-47
2023/10/03 08:06:34;;;;;;;;;;;22.20;71.00;;;;;;5102612;28;20383;-47
2023/10/03 08:09:00;;;;;;;;;;;22.20;71.00;;;;;;5101943;28;20689;-46
2023/10/03 08:11:29;;;;;;;;;;;22.20;71.00;;;;;;5099790;28;19919;-47
2023/10/03 08:14:16;;;;;;;;;;;22.20;71.00;;;;;;5105643;28;19908;-47
2023/10/03 08:16:42;;;;;;;;;;;22.20;71.10;;;;;;5106241;28;19915;-47
2023/10/03 08:19:10;;;;;;;;;;;22.20;71.00;;;;;;5109056;28;19978;-47
2023/10/03 08:21:40;;;;;;;;;;;22.20;71.90;;;;;;5106048;28;19911;-47
2023/10/03 08:24:14;;;;;;;;;;;22.20;71.10;;;;;;5109817;28;19911;-47
2023/10/03 08:26:46;;;;;;;;;;;22.10;71.10;;;;;;5106297;28;19944;-46
2023/10/03 08:29:21;;;;;;;;;;;22.10;71.10;;;;;;5105643;28;19919;-46
2023/10/03 08:31:49;;;;;;;;;;;22.10;71.10;;;;;;5106066;28;19934;-47
2023/10/03 08:34:19;;;;;;;;;;;22.10;71.20;;;;;;5105570;28;19912;-46
2023/10/03 08:36:45;;;;;;;;;;;22.10;71.20;;;;;;5107204;28;19947;-46
2023/10/03 08:39:14;;;;;;;;;;;22.10;71.20;;;;;;5110852;28;19935;-47
2023/10/03 08:41:53;;;;;;;;;;;22.10;71.20;;;;;;5102343;28;19933;-46
2023/10/03 08:44:20;;;;;;;;;;;22.10;71.30;;;;;;5096002;28;20703;-46
2023/10/03 08:46:48;;;;;;;;;;;22.10;71.30;;;;;;5120944;28;19908;-46
2023/10/03 08:49:17;;;;;;;;;;;22.00;71.20;;;;;;5105152;28;19912;-47
2023/10/03 08:51:46;;;;;;;;;;;22.00;71.20;;;;;;5087386;28;19946;-47
2023/10/03 08:54:12;;;;;;;;;;;22.00;71.30;;;;;;5104653;28;19912;-46
2023/10/03 08:56:42;;;;;;;;;;;22.00;71.30;;;;;;5105810;28;19961;-47
2023/10/03 08:59:09;;;;;;;;;;;22.00;71.30;;;;;;5104558;28;20020;-45
2023/10/03 09:01:41;;;;;;;;;;;22.00;71.30;;;;;;5104589;28;19912;-47
2023/10/03 09:04:09;;;;;;;;;;;22.00;71.30;;;;;;5086897;28;19923;-45
2023/10/03 09:06:38;;;;;;;;;;;22.00;71.30;;;;;;5105173;28;19947;-47
2023/10/03 09:09:13;;;;;;;;;;;21.90;71.30;;;;;;5099346;28;19912;-46
2023/10/03 09:11:41;;;;;;;;;;;21.90;71.40;;;;;;5105345;28;19908;-46
2023/10/03 09:14:07;;;;;;;;;;;21.90;71.40;;;;;;5087746;28;19918;-48
2023/10/03 09:16:38;;;;;;;;;;;21.90;71.40;;;;;;5104997;28;19908;-47
2023/10/03 09:19:04;;;;;;;;;;;21.90;71.50;;;;;;5102390;28;19920;-48
2023/10/03 09:21:30;;;;;;;;;;;21.90;71.50;;;;;;5093990;28;19920;-46
2023/10/03 09:24:09;;;;;;;;;;;21.90;71.50;;;;;;5101437;28;19994;-46
2023/10/03 09:26:51;;;;;;;;;;;21.90;71.50;;;;;;5104735;28;19919;-46
2023/10/03 09:29:29;;;;;;;;;;;21.90;71.50;;;;;;5099689;28;19939;-46
2023/10/03 09:31:59;;;;;;;;;;;21.80;71.50;;;;;;5093705;28;19947;-47
2023/10/03 09:34:33;;;;;;;;;;;21.80;71.50;;;;;;5098013;28;19951;-46
2023/10/03 09:37:05;;;;;;;;;;;21.80;71.50;;;;;;5096412;28;19938;-48
2023/10/03 09:39:47;;;;;;;;;;;21.80;71.50;;;;;;5096202;28;19951;-46
2023/10/03 09:42:17;;;;;;;;;;;21.80;71.50;;;;;;5088944;28;19934;-46
2023/10/03 09:44:46;;;;;;;;;;;21.80;71.50;;;;;;5104842;28;19938;-47
2023/10/03 09:47:13;;;;;;;;;;;21.70;71.50;;;;;;5086140;28;20491;-46
2023/10/03 09:49:39;;;;;;;;;;;21.80;71.60;;;;;;5096939;28;19912;-46
2023/10/03 09:52:07;;;;;;;;;;;21.70;71.50;;;;;;5104201;28;19911;-47
2023/10/03 09:54:35;;;;;;;;;;;21.70;71.50;;;;;;5103325;28;19991;-47
2023/10/03 09:57:01;;;;;;;;;;;21.70;71.60;;;;;;5102516;28;19916;-46
2023/10/03 09:59:26;;;;;;;;;;;21.70;71.70;;;;;;5099609;28;20008;-46
2023/10/03 10:01:55;;;;;;;;;;;21.70;71.60;;;;;;5101237;28;20648;-46
2023/10/03 10:04:22;;;;;;;;;;;21.70;71.60;;;;;;5078004;28;19911;-45
2023/10/03 10:06:52;;;;;;;;;;;21.70;71.60;;;;;;5103558;28;19975;-47
2023/10/03 10:09:29;;;;;;;;;;;21.70;71.60;;;;;;5095420;28;19914;-46
2023/10/03 10:12:09;;;;;;;;;;;21.70;71.70;;;;;;5103921;28;19969;-46
2023/10/03 10:14:54;;;;;;;;;;;21.60;71.60;;;;;;5096150;28;19930;-46
2023/10/03 10:17:21;;;;;;;;;;;21.60;71.70;;;;;;5096341;28;19916;-45
2023/10/03 10:20:05;;;;;;;;;;;21.60;71.60;;;;;;5103569;28;19919;-48
2023/10/03 10:26:11;;;;;;;;;;;21.60;71.80;;;;;;5096012;28;19908;-46
2023/10/03 10:28:34;;;;;;;;;;;21.60;71.80;;;;;;5101163;28;19919;-46
2023/10/03 10:31:16;;;;;;;;;;;21.50;71.70;;;;;;5103158;28;19923;-46
2023/10/03 10:33:42;;;;;;;;;;;21.60;71.80;;;;;;5103150;28;19912;-45
2023/10/03 10:36:12;;;;;;;;;;;21.60;71.80;;;;;;5095295;28;19916;-46
2023/10/03 10:38:40;;;;;;;;;;;21.50;71.90;;;;;;5102793;28;19928;-46
2023/10/03 10:41:45;;;;;;;;;;;21.50;71.90;;;;;;5101985;28;19912;-45
2023/10/03 10:44:08;;;;;;;;;;;21.50;71.80;;;;;;5095127;28;20602;-45
2023/10/03 10:46:43;;;;;;;;;;;21.50;71.90;;;;;;5102892;28;19908;-45
2023/10/03 10:49:27;;;;;;;;;;;21.50;71.90;;;;;;5102539;28;19922;-46
2023/10/03 10:52:13;;;;;;;;;;;21.50;71.90;;;;;;5100291;28;19954;-46
2023/10/03 10:54:42;;;;;;;;;;;21.50;71.90;;;;;;5092034;28;19908;-48
2023/10/03 10:57:14;;;;;;;;;;;21.50;71.90;;;;;;5101291;28;19922;-46
2023/10/03 10:59:40;;;;;;;;;;;21.50;71.90;;;;;;5102061;28;19924;-45
2023/10/03 11:02:26;;;;;;;;;;;21.40;71.90;;;;;;5102428;28;19918;-45
2023/10/03 11:04:55;;;;;;;;;;;21.40;71.90;;;;;;5117253;28;19919;-47
2023/10/03 11:07:22;;;;;;;;;;;21.40;71.90;;;;;;5084743;28;19912;-47
2023/10/03 11:09:48;;;;;;;;;;;21.40;72.00;;;;;;5090630;28;19908;-47
2023/10/03 11:12:24;;;;;;;;;;;21.40;72.00;;;;;;5103251;28;19954;-47
2023/10/03 11:14:50;;;;;;;;;;;21.40;72.00;;;;;;5094104;28;19934;-45
2023/10/03 11:17:16;;;;;;;;;;;21.40;71.90;;;;;;5090850;28;19908;-46
2023/10/03 11:19:42;;;;;;;;;;;21.40;72.00;;;;;;5087800;28;19917;-45
2023/10/03 11:22:12;;;;;;;;;;;21.30;72.00;;;;;;5093586;28;19930;-47
2023/10/03 11:24:39;;;;;;;;;;;21.30;72.00;;;;;;5096749;28;20006;-46
2023/10/03 11:27:05;;;;;;;;;;;21.30;72.00;;;;;;5101712;28;19912;-46
2023/10/03 11:29:37;;;;;;;;;;;21.30;72.00;;;;;;5095330;28;19912;-45
2023/10/03 11:32:03;;;;;;;;;;;21.30;72.00;;;;;;5101672;28;19943;-46
2023/10/03 11:34:35;;;;;;;;;;;21.30;72.00;;;;;;5095080;28;19916;-46
2023/10/03 11:37:04;;;;;;;;;;;21.30;72.10;;;;;;5094591;28;20655;-45
2023/10/03 11:39:37;;;;;;;;;;;21.30;72.10;;;;;;5101261;28;19928;-46
2023/10/03 11:42:12;;;;;;;;;;;21.30;72.00;;;;;;5101138;28;19987;-46
2023/10/03 11:44:38;;;;;;;;;;;21.30;72.10;;;;;;5079400;28;19911;-46
2023/10/03 11:47:04;;;;;;;;;;;21.20;72.10;;;;;;5104480;28;19912;-45
2023/10/03 11:49:30;;;;;;;;;;;21.20;72.10;;;;;;5105814;28;19939;-45
2023/10/03 11:51:56;;;;;;;;;;;21.20;72.10;;;;;;5111701;28;20359;-45
2023/10/03 11:54:22;;;;;;;;;;;21.20;72.20;;;;;;5107165;28;19912;-48
2023/10/03 11:56:48;;;;;;;;;;;21.20;72.10;;;;;;5096829;28;19919;-45
2023/10/03 11:59:14;;;;;;;;;;;21.20;72.20;;;;;;5101877;28;20023;-47
2023/10/03 12:01:56;;;;;;;;;;;21.20;72.30;;;;;;5096215;28;19917;-47
2023/10/03 12:04:23;;;;;;;;;;;21.20;72.20;;;;;;5106512;28;19991;-47
2023/10/03 12:06:49;;;;;;;;;;;21.20;72.30;;;;;;5106189;28;19912;-46
2023/10/03 12:09:17;;;;;;;;;;;21.10;72.30;;;;;;5104725;28;19919;-45
2023/10/03 12:11:43;;;;;;;;;;;21.10;72.30;;;;;;5106362;28;19919;-46
2023/10/03 12:14:09;;;;;;;;;;;21.10;72.30;;;;;;5105861;28;19916;-45
2023/10/03 12:16:38;;;;;;;;;;;21.10;72.30;;;;;;5105526;28;19935;-46
2023/10/03 12:19:07;;;;;;;;;;;21.10;72.30;;;;;;5105662;28;19926;-46
2023/10/03 12:21:33;;;;;;;;;;;21.10;72.30;;;;;;5107205;28;19998;-46
2023/10/03 12:24:00;;;;;;;;;;;21.10;72.30;;;;;;5106123;28;19960;-45
2023/10/03 12:26:26;;;;;;;;;;;21.10;72.30;;;;;;5108790;28;19912;-46
2023/10/03 12:28:52;;;;;;;;;;;21.10;72.50;;;;;;5097686;28;19908;-45
2023/10/03 12:31:25;;;;;;;;;;;21.10;72.30;;;;;;5105796;28;19919;-46
2023/10/03 12:33:52;;;;;;;;;;;21.00;72.30;;;;;;5105176;28;20007;-47
2023/10/03 12:36:18;;;;;;;;;;;21.00;72.30;;;;;;5109101;28;19911;-45
2023/10/03 12:38:44;;;;;;;;;;;21.00;72.30;;;;;;5109482;28;19916;-46
2023/10/03 12:41:09;;;;;;;;;;;21.00;72.40;;;;;;5102266;28;19922;-46
2023/10/03 12:43:37;;;;;;;;;;;21.00;72.40;;;;;;5104785;28;19908;-46
2023/10/03 12:46:04;;;;;;;;;;;21.00;72.40;;;;;;5105043;28;19908;-47
2023/10/03 12:48:33;;;;;;;;;;;21.00;72.40;;;;;;5102234;28;19912;-46
2023/10/03 12:50:59;;;;;;;;;;;21.00;72.40;;;;;;5098481;28;19941;-47
2023/10/03 12:53:25;;;;;;;;;;;21.00;72.50;;;;;;5105648;28;19912;-45
2023/10/03 12:55:51;;;;;;;;;;;21.00;72.50;;;;;;5104136;28;20383;-47
2023/10/03 12:58:18;;;;;;;;;;;20.90;72.40;;;;;;5116248;28;20380;-46
2023/10/03 13:00:49;;;;;;;;;;;20.90;72.40;;;;;;5125636;28;19915;-48
2023/10/03 13:03:15;;;;;;;;;;;20.90;72.40;;;;;;5125856;28;19912;-45
2023/10/03 13:05:40;;;;;;;;;;;20.90;72.40;;;;;;5125564;28;19965;-48
2023/10/03 13:08:08;;;;;;;;;;;20.90;72.40;;;;;;5121572;27;19923;-46
2023/10/03 13:10:34;;;;;;;;;;;20.90;72.50;;;;;;5121575;28;19911;-47
2023/10/03 13:13:01;;;;;;;;;;;20.90;72.50;;;;;;5125636;28;19915;-46
2023/10/03 13:15:27;;;;;;;;;;;20.90;72.50;;;;;;5125474;28;20000;-46
2023/10/03 13:17:53;;;;;;;;;;;20.90;72.50;;;;;;5124445;28;19908;-46
2023/10/03 13:20:20;;;;;;;;;;;20.90;72.50;;;;;;5115990;27;19915;-47
2023/10/03 13:22:47;;;;;;;;;;;20.90;72.50;;;;;;5125085;27;19945;-46
2023/10/03 13:25:13;;;;;;;;;;;20.90;72.50;;;;;;5140759;27;19911;-46
2023/10/03 13:27:39;;;;;;;;;;;20.90;73.00;;;;;;5125254;27;19957;-46
2023/10/03 13:30:10;;;;;;;;;;;20.90;72.60;;;;;;5124452;28;19915;-46
2023/10/03 13:32:37;;;;;;;;;;;20.90;72.50;;;;;;5125122;28;19907;-48
2023/10/03 13:35:07;;;;;;;;;;;20.90;72.50;;;;;;5124913;28;19926;-48
2023/10/03 13:37:33;;;;;;;;;;;20.90;72.60;;;;;;5125669;27;19908;-47
2023/10/03 13:39:59;;;;;;;;;;;20.90;72.50;;;;;;5124613;28;19981;-46
2023/10/03 13:42:28;;;;;;;;;;;20.90;72.60;;;;;;5124988;28;19907;-45
2023/10/03 13:44:54;;;;;;;;;;;20.90;72.70;;;;;;5123663;28;20476;-46
2023/10/03 13:47:20;;;;;;;;;;;20.80;72.60;;;;;;5118698;27;20685;-46
2023/10/03 13:49:46;;;;;;;;;;;20.80;72.60;;;;;;5117870;28;20018;-46
2023/10/03 13:52:13;;;;;;;;;;;20.80;72.60;;;;;;5116523;28;20017;-46
2023/10/03 13:54:40;;;;;;;;;;;20.80;72.60;;;;;;5125161;28;19908;-46
2023/10/03 13:57:06;;;;;;;;;;;20.90;72.70;;;;;;5117232;27;19940;-46
2023/10/03 13:59:32;;;;;;;;;;;20.90;72.70;;;;;;5119174;28;19926;-46
2023/10/03 14:01:58;;;;;;;;;;;20.80;72.70;;;;;;5124667;28;19908;-46
2023/10/03 14:04:24;;;;;;;;;;;20.90;72.80;;;;;;5125271;27;19918;-47
2023/10/03 14:06:52;;;;;;;;;;;20.90;72.80;;;;;;5124093;28;19914;-46
2023/10/03 14:09:18;;;;;;;;;;;20.90;72.80;;;;;;5124122;28;19942;-48
2023/10/03 14:11:46;;;;;;;;;;;20.80;72.70;;;;;;5123872;28;20494;-47
2023/10/03 14:14:13;;;;;;;;;;;20.80;72.70;;;;;;5123924;28;19912;-48
2023/10/03 14:16:39;;;;;;;;;;;20.80;72.70;;;;;;5124645;28;19926;-48
2023/10/03 14:19:05;;;;;;;;;;;20.90;72.80;;;;;;5124031;28;19919;-47
2023/10/03 14:21:30;;;;;;;;;;;20.80;72.70;;;;;;5124055;28;19918;-47
2023/10/03 14:23:56;;;;;;;;;;;20.90;72.90;;;;;;5104731;28;19911;-47
2023/10/03 14:26:24;;;;;;;;;;;20.80;72.80;;;;;;5124287;28;19918;-47
2023/10/03 14:28:50;;;;;;;;;;;20.90;72.90;;;;;;5124104;27;19912;-46
2023/10/03 14:31:16;;;;;;;;;;;20.90;72.90;;;;;;5139381;27;19907;-46